sensor_id;sensor_type;location;lat;lon;timestamp;P1;durP1;ratioP1;P2;durP2;ratioP2
10045;SDS011;5063;50.878;4.742;2023-02-01T00:01:53;17.80;;;8.57;;
10045;SDS011;5063;50.878;4.742;2023-02-01T00:04:19;18.87;;;8.63;;
10045;SDS011;5063;50.878;4.742;2023-02-01T00:06:45;16.17;;;7.83;;
10045;SDS011;5063;50.878;4.742;2023-02-01T00:09:11;16.57;;;7.60;;
10045;SDS011;5063;50.878;4.742;2023-02-01T00:11:37;18.47;;;8.27;;
10045;SDS011;5063;50.878;4.742;2023-02-01T00:14:03;12.30;;;7.37;;
10045;SDS011;5063;50.878;4.742;2023-02-01T00:16:30;14.73;;;6.97;;
10045;SDS011;5063;50.878;4.742;2023-02-01T00:18:57;16.03;;;6.83;;
10045;SDS011;5063;50.878;4.742;2023-02-01T00:21:25;16.40;;;6.03;;
10045;SDS011;5063;50.878;4.742;2023-02-01T00:23:50;17.03;;;6.90;;
10045;SDS011;5063;50.878;4.742;2023-02-01T00:26:17;19.13;;;6.43;;
10045;SDS011;5063;50.878;4.742;2023-02-01T00:28:45;14.30;;;5.80;;
10045;SDS011;5063;50.878;4.742;2023-02-01T00:31:11;19.70;;;6.37;;
10045;SDS011;5063;50.878;4.742;2023-02-01T00:33:37;19.93;;;6.50;;
10045;SDS011;5063;50.878;4.742;2023-02-01T00:36:04;14.07;;;6.07;;
10045;SDS011;5063;50.878;4.742;2023-02-01T00:38:32;13.43;;;5.73;;
10045;SDS011;5063;50.878;4.742;2023-02-01T00:41:12;11.70;;;6.33;;
10045;SDS011;5063;50.878;4.742;2023-02-01T00:43:43;18.37;;;6.03;;
10045;SDS011;5063;50.878;4.742;2023-02-01T00:46:10;12.00;;;5.47;;
10045;SDS011;5063;50.878;4.742;2023-02-01T00:48:36;20.17;;;5.80;;
10045;SDS011;5063;50.878;4.742;2023-02-01T00:51:07;14.30;;;5.67;;
10045;SDS011;5063;50.878;4.742;2023-02-01T00:53:34;22.67;;;6.53;;
10045;SDS011;5063;50.878;4.742;2023-02-01T00:56:01;20.60;;;6.87;;
10045;SDS011;5063;50.878;4.742;2023-02-01T00:58:27;20.17;;;6.27;;
10045;SDS011;5063;50.878;4.742;2023-02-01T01:03:29;19.80;;;6.73;;
10045;SDS011;5063;50.878;4.742;2023-02-01T01:05:58;20.80;;;6.33;;
10045;SDS011;5063;50.878;4.742;2023-02-01T01:08:25;17.80;;;6.73;;
10045;SDS011;5063;50.878;4.742;2023-02-01T01:10:51;15.37;;;6.60;;
10045;SDS011;5063;50.878;4.742;2023-02-01T01:13:18;16.60;;;6.33;;
10045;SDS011;5063;50.878;4.742;2023-02-01T01:15:43;18.87;;;5.80;;
10045;SDS011;5063;50.878;4.742;2023-02-01T01:18:09;18.77;;;6.10;;
10045;SDS011;5063;50.878;4.742;2023-02-01T01:20:36;16.37;;;7.33;;
10045;SDS011;5063;50.878;4.742;2023-02-01T01:23:04;13.50;;;5.53;;
10045;SDS011;5063;50.878;4.742;2023-02-01T01:25:30;15.43;;;6.07;;
10045;SDS011;5063;50.878;4.742;2023-02-01T01:27:56;18.77;;;6.60;;
10045;SDS011;5063;50.878;4.742;2023-02-01T01:30:23;16.87;;;6.20;;
10045;SDS011;5063;50.878;4.742;2023-02-01T01:32:49;13.77;;;6.73;;
10045;SDS011;5063;50.878;4.742;2023-02-01T01:35:14;23.57;;;6.30;;
10045;SDS011;5063;50.878;4.742;2023-02-01T01:37:40;15.00;;;5.93;;
10045;SDS011;5063;50.878;4.742;2023-02-01T01:40:06;11.97;;;5.60;;
10045;SDS011;5063;50.878;4.742;2023-02-01T01:42:38;11.90;;;5.60;;
10045;SDS011;5063;50.878;4.742;2023-02-01T01:45:18;19.50;;;5.37;;
10045;SDS011;5063;50.878;4.742;2023-02-01T01:47:48;22.90;;;5.87;;
10045;SDS011;5063;50.878;4.742;2023-02-01T01:50:19;16.27;;;5.70;;
10045;SDS011;5063;50.878;4.742;2023-02-01T01:52:49;16.10;;;5.73;;
10045;SDS011;5063;50.878;4.742;2023-02-01T01:55:18;19.17;;;5.77;;
10045;SDS011;5063;50.878;4.742;2023-02-01T01:57:50;22.57;;;6.13;;
10045;SDS011;5063;50.878;4.742;2023-02-01T02:00:22;15.87;;;5.77;;
10045;SDS011;5063;50.878;4.742;2023-02-01T02:02:54;17.07;;;5.57;;
10045;SDS011;5063;50.878;4.742;2023-02-01T02:05:24;13.77;;;5.40;;
10045;SDS011;5063;50.878;4.742;2023-02-01T02:07:51;18.10;;;5.60;;
10045;SDS011;5063;50.878;4.742;2023-02-01T02:10:18;19.57;;;5.43;;
10045;SDS011;5063;50.878;4.742;2023-02-01T02:12:45;14.10;;;4.93;;
10045;SDS011;5063;50.878;4.742;2023-02-01T02:15:13;16.30;;;5.67;;
10045;SDS011;5063;50.878;4.742;2023-02-01T02:20:18;13.33;;;4.73;;
10045;SDS011;5063;50.878;4.742;2023-02-01T02:28:37;17.13;;;4.40;;
10045;SDS011;5063;50.878;4.742;2023-02-01T02:34:04;13.00;;;3.37;;
10045;SDS011;5063;50.878;4.742;2023-02-01T02:39:38;16.73;;;3.87;;
10045;SDS011;5063;50.878;4.742;2023-02-01T02:45:11;16.40;;;4.23;;
10045;SDS011;5063;50.878;4.742;2023-02-01T02:56:35;12.27;;;4.60;;
10045;SDS011;5063;50.878;4.742;2023-02-01T02:59:21;8.37;;;3.70;;
10045;SDS011;5063;50.878;4.742;2023-02-01T03:02:08;13.63;;;4.10;;
10045;SDS011;5063;50.878;4.742;2023-02-01T03:04:54;17.93;;;3.60;;
10045;SDS011;5063;50.878;4.742;2023-02-01T03:19:03;15.93;;;3.60;;
10045;SDS011;5063;50.878;4.742;2023-02-01T03:21:59;13.67;;;3.87;;
10045;SDS011;5063;50.878;4.742;2023-02-01T03:24:39;11.93;;;3.20;;
10045;SDS011;5063;50.878;4.742;2023-02-01T03:29:40;12.27;;;3.40;;
10045;SDS011;5063;50.878;4.742;2023-02-01T03:32:25;15.50;;;4.70;;
10045;SDS011;5063;50.878;4.742;2023-02-01T03:34:50;9.33;;;3.77;;
10045;SDS011;5063;50.878;4.742;2023-02-01T03:37:27;21.03;;;4.43;;
10045;SDS011;5063;50.878;4.742;2023-02-01T03:39:58;11.40;;;3.30;;
10045;SDS011;5063;50.878;4.742;2023-02-01T03:42:34;13.43;;;3.60;;
10045;SDS011;5063;50.878;4.742;2023-02-01T03:45:13;7.03;;;3.17;;
10045;SDS011;5063;50.878;4.742;2023-02-01T03:47:44;15.23;;;4.17;;
10045;SDS011;5063;50.878;4.742;2023-02-01T03:50:15;7.03;;;3.40;;
10045;SDS011;5063;50.878;4.742;2023-02-01T03:52:47;11.13;;;3.67;;
10045;SDS011;5063;50.878;4.742;2023-02-01T03:55:18;21.83;;;3.90;;
10045;SDS011;5063;50.878;4.742;2023-02-01T03:57:50;11.90;;;3.73;;
10045;SDS011;5063;50.878;4.742;2023-02-01T04:00:22;12.93;;;3.10;;
10045;SDS011;5063;50.878;4.742;2023-02-01T04:02:49;15.53;;;3.67;;
10045;SDS011;5063;50.878;4.742;2023-02-01T04:05:16;13.70;;;3.60;;
10045;SDS011;5063;50.878;4.742;2023-02-01T04:07:42;15.33;;;3.77;;
10045;SDS011;5063;50.878;4.742;2023-02-01T04:10:08;13.80;;;4.07;;
10045;SDS011;5063;50.878;4.742;2023-02-01T04:12:35;13.67;;;3.57;;
10045;SDS011;5063;50.878;4.742;2023-02-01T04:15:01;14.73;;;4.43;;
10045;SDS011;5063;50.878;4.742;2023-02-01T04:17:28;11.00;;;3.93;;
10045;SDS011;5063;50.878;4.742;2023-02-01T04:19:54;15.53;;;3.70;;
10045;SDS011;5063;50.878;4.742;2023-02-01T04:22:20;20.60;;;4.73;;
10045;SDS011;5063;50.878;4.742;2023-02-01T04:24:45;12.27;;;3.63;;
10045;SDS011;5063;50.878;4.742;2023-02-01T04:27:11;17.23;;;4.07;;
10045;SDS011;5063;50.878;4.742;2023-02-01T04:29:37;21.33;;;5.17;;
10045;SDS011;5063;50.878;4.742;2023-02-01T04:32:04;18.80;;;4.47;;
10045;SDS011;5063;50.878;4.742;2023-02-01T04:34:30;13.80;;;3.83;;
10045;SDS011;5063;50.878;4.742;2023-02-01T04:36:56;18.00;;;4.37;;
10045;SDS011;5063;50.878;4.742;2023-02-01T04:39:22;10.10;;;3.27;;
10045;SDS011;5063;50.878;4.742;2023-02-01T04:41:48;15.67;;;3.83;;
10045;SDS011;5063;50.878;4.742;2023-02-01T04:44:15;12.20;;;4.00;;
10045;SDS011;5063;50.878;4.742;2023-02-01T04:46:42;15.33;;;4.07;;
10045;SDS011;5063;50.878;4.742;2023-02-01T04:49:09;19.30;;;3.97;;
10045;SDS011;5063;50.878;4.742;2023-02-01T04:51:35;15.53;;;3.93;;
10045;SDS011;5063;50.878;4.742;2023-02-01T04:54:01;10.63;;;3.90;;
10045;SDS011;5063;50.878;4.742;2023-02-01T04:56:27;10.57;;;2.83;;
10045;SDS011;5063;50.878;4.742;2023-02-01T04:58:53;16.87;;;4.00;;
10045;SDS011;5063;50.878;4.742;2023-02-01T05:01:20;11.97;;;3.20;;
10045;SDS011;5063;50.878;4.742;2023-02-01T05:03:46;14.57;;;3.97;;
10045;SDS011;5063;50.878;4.742;2023-02-01T05:06:11;12.73;;;4.23;;
10045;SDS011;5063;50.878;4.742;2023-02-01T05:08:37;10.37;;;3.80;;
10045;SDS011;5063;50.878;4.742;2023-02-01T05:11:04;18.50;;;3.60;;
10045;SDS011;5063;50.878;4.742;2023-02-01T05:13:30;24.67;;;5.10;;
10045;SDS011;5063;50.878;4.742;2023-02-01T05:16:14;20.23;;;4.27;;
10045;SDS011;5063;50.878;4.742;2023-02-01T05:18:40;20.47;;;4.60;;
10045;SDS011;5063;50.878;4.742;2023-02-01T05:21:07;21.57;;;4.50;;
10045;SDS011;5063;50.878;4.742;2023-02-01T05:23:33;12.93;;;3.47;;
10045;SDS011;5063;50.878;4.742;2023-02-01T05:26:19;17.33;;;4.20;;
10045;SDS011;5063;50.878;4.742;2023-02-01T05:28:44;20.53;;;4.37;;
10045;SDS011;5063;50.878;4.742;2023-02-01T05:31:11;17.17;;;4.40;;
10045;SDS011;5063;50.878;4.742;2023-02-01T05:33:37;12.60;;;3.83;;
10045;SDS011;5063;50.878;4.742;2023-02-01T05:36:02;14.93;;;4.03;;
10045;SDS011;5063;50.878;4.742;2023-02-01T05:38:28;8.53;;;3.30;;
10045;SDS011;5063;50.878;4.742;2023-02-01T05:40:55;14.20;;;4.03;;
10045;SDS011;5063;50.878;4.742;2023-02-01T05:43:21;13.23;;;3.83;;
10045;SDS011;5063;50.878;4.742;2023-02-01T05:45:47;18.53;;;4.27;;
10045;SDS011;5063;50.878;4.742;2023-02-01T05:48:13;21.00;;;4.60;;
10045;SDS011;5063;50.878;4.742;2023-02-01T05:50:39;17.53;;;4.17;;
10045;SDS011;5063;50.878;4.742;2023-02-01T05:53:05;13.70;;;4.40;;
10045;SDS011;5063;50.878;4.742;2023-02-01T05:55:31;11.50;;;3.93;;
10045;SDS011;5063;50.878;4.742;2023-02-01T05:57:57;17.57;;;3.63;;
10045;SDS011;5063;50.878;4.742;2023-02-01T06:00:23;13.83;;;3.90;;
10045;SDS011;5063;50.878;4.742;2023-02-01T06:02:49;13.13;;;3.90;;
10045;SDS011;5063;50.878;4.742;2023-02-01T06:05:15;11.43;;;4.00;;
10045;SDS011;5063;50.878;4.742;2023-02-01T06:07:40;14.00;;;4.40;;
10045;SDS011;5063;50.878;4.742;2023-02-01T06:10:07;14.93;;;4.20;;
10045;SDS011;5063;50.878;4.742;2023-02-01T06:12:33;11.97;;;3.43;;
10045;SDS011;5063;50.878;4.742;2023-02-01T06:14:59;15.27;;;4.47;;
10045;SDS011;5063;50.878;4.742;2023-02-01T06:17:25;16.60;;;4.10;;
10045;SDS011;5063;50.878;4.742;2023-02-01T06:19:51;13.07;;;3.93;;
10045;SDS011;5063;50.878;4.742;2023-02-01T06:22:16;19.77;;;3.57;;
10045;SDS011;5063;50.878;4.742;2023-02-01T06:24:42;22.80;;;4.13;;
10045;SDS011;5063;50.878;4.742;2023-02-01T06:27:08;11.60;;;3.20;;
10045;SDS011;5063;50.878;4.742;2023-02-01T06:29:35;20.03;;;3.83;;
10045;SDS011;5063;50.878;4.742;2023-02-01T06:32:01;16.23;;;4.17;;
10045;SDS011;5063;50.878;4.742;2023-02-01T06:34:28;18.70;;;4.27;;
10045;SDS011;5063;50.878;4.742;2023-02-01T06:36:53;16.90;;;3.57;;
10045;SDS011;5063;50.878;4.742;2023-02-01T06:39:20;16.40;;;4.40;;
10045;SDS011;5063;50.878;4.742;2023-02-01T06:41:49;17.73;;;4.00;;
10045;SDS011;5063;50.878;4.742;2023-02-01T06:44:15;17.13;;;4.77;;
10045;SDS011;5063;50.878;4.742;2023-02-01T06:46:41;24.60;;;3.97;;
10045;SDS011;5063;50.878;4.742;2023-02-01T06:49:07;12.20;;;4.07;;
10045;SDS011;5063;50.878;4.742;2023-02-01T06:51:33;10.07;;;3.10;;
10045;SDS011;5063;50.878;4.742;2023-02-01T06:54:00;8.27;;;3.20;;
10045;SDS011;5063;50.878;4.742;2023-02-01T06:56:26;20.27;;;3.70;;
10045;SDS011;5063;50.878;4.742;2023-02-01T06:58:52;13.63;;;3.40;;
10045;SDS011;5063;50.878;4.742;2023-02-01T07:01:18;14.80;;;4.10;;
10045;SDS011;5063;50.878;4.742;2023-02-01T07:03:50;15.23;;;4.13;;
10045;SDS011;5063;50.878;4.742;2023-02-01T07:06:16;15.47;;;4.27;;
10045;SDS011;5063;50.878;4.742;2023-02-01T07:08:43;11.97;;;3.70;;
10045;SDS011;5063;50.878;4.742;2023-02-01T07:11:10;16.63;;;4.83;;
10045;SDS011;5063;50.878;4.742;2023-02-01T07:13:38;11.63;;;3.70;;
10045;SDS011;5063;50.878;4.742;2023-02-01T07:16:05;15.63;;;3.73;;
10045;SDS011;5063;50.878;4.742;2023-02-01T07:18:34;14.87;;;4.07;;
10045;SDS011;5063;50.878;4.742;2023-02-01T07:21:00;12.57;;;4.23;;
10045;SDS011;5063;50.878;4.742;2023-02-01T07:23:26;23.40;;;4.50;;
10045;SDS011;5063;50.878;4.742;2023-02-01T07:25:56;15.93;;;4.30;;
10045;SDS011;5063;50.878;4.742;2023-02-01T07:28:23;15.33;;;4.63;;
10045;SDS011;5063;50.878;4.742;2023-02-01T07:30:49;16.67;;;4.17;;
10045;SDS011;5063;50.878;4.742;2023-02-01T07:33:21;22.10;;;4.63;;
10045;SDS011;5063;50.878;4.742;2023-02-01T07:35:49;21.20;;;4.30;;
10045;SDS011;5063;50.878;4.742;2023-02-01T07:38:15;18.97;;;3.80;;
10045;SDS011;5063;50.878;4.742;2023-02-01T07:40:41;17.20;;;4.40;;
10045;SDS011;5063;50.878;4.742;2023-02-01T07:43:07;24.40;;;4.10;;
10045;SDS011;5063;50.878;4.742;2023-02-01T07:45:34;12.20;;;3.67;;
10045;SDS011;5063;50.878;4.742;2023-02-01T07:48:01;19.13;;;4.63;;
10045;SDS011;5063;50.878;4.742;2023-02-01T07:50:27;15.63;;;4.70;;
10045;SDS011;5063;50.878;4.742;2023-02-01T07:52:54;13.73;;;4.23;;
10045;SDS011;5063;50.878;4.742;2023-02-01T07:55:20;14.47;;;4.30;;
10045;SDS011;5063;50.878;4.742;2023-02-01T07:57:45;12.27;;;4.30;;
10045;SDS011;5063;50.878;4.742;2023-02-01T08:00:12;14.57;;;3.63;;
10045;SDS011;5063;50.878;4.742;2023-02-01T08:02:57;15.83;;;3.97;;
10045;SDS011;5063;50.878;4.742;2023-02-01T08:05:26;16.37;;;3.60;;
10045;SDS011;5063;50.878;4.742;2023-02-01T08:07:52;15.43;;;3.90;;
10045;SDS011;5063;50.878;4.742;2023-02-01T08:10:18;16.07;;;4.13;;
10045;SDS011;5063;50.878;4.742;2023-02-01T08:12:44;21.33;;;4.80;;
10045;SDS011;5063;50.878;4.742;2023-02-01T08:15:17;17.50;;;5.33;;
10045;SDS011;5063;50.878;4.742;2023-02-01T08:17:52;17.40;;;4.17;;
10045;SDS011;5063;50.878;4.742;2023-02-01T08:20:20;21.67;;;4.53;;
10045;SDS011;5063;50.878;4.742;2023-02-01T08:22:48;11.37;;;4.00;;
10045;SDS011;5063;50.878;4.742;2023-02-01T08:25:14;17.53;;;4.07;;
10045;SDS011;5063;50.878;4.742;2023-02-01T08:27:40;17.63;;;4.00;;
10045;SDS011;5063;50.878;4.742;2023-02-01T08:30:06;18.57;;;3.70;;
10045;SDS011;5063;50.878;4.742;2023-02-01T08:32:33;13.57;;;4.13;;
10045;SDS011;5063;50.878;4.742;2023-02-01T08:34:59;15.67;;;3.73;;
10045;SDS011;5063;50.878;4.742;2023-02-01T08:37:25;13.30;;;4.30;;
10045;SDS011;5063;50.878;4.742;2023-02-01T08:39:51;13.73;;;3.97;;
10045;SDS011;5063;50.878;4.742;2023-02-01T08:42:17;15.27;;;3.90;;
10045;SDS011;5063;50.878;4.742;2023-02-01T08:45:02;18.77;;;5.03;;
10045;SDS011;5063;50.878;4.742;2023-02-01T08:47:28;16.03;;;4.30;;
10045;SDS011;5063;50.878;4.742;2023-02-01T08:49:54;11.77;;;3.83;;
10045;SDS011;5063;50.878;4.742;2023-02-01T08:52:20;10.53;;;4.10;;
10045;SDS011;5063;50.878;4.742;2023-02-01T08:54:46;14.43;;;3.97;;
10045;SDS011;5063;50.878;4.742;2023-02-01T08:57:12;11.70;;;3.93;;
10045;SDS011;5063;50.878;4.742;2023-02-01T08:59:38;20.53;;;4.43;;
10045;SDS011;5063;50.878;4.742;2023-02-01T09:02:04;14.10;;;4.70;;
10045;SDS011;5063;50.878;4.742;2023-02-01T09:04:30;17.20;;;4.57;;
10045;SDS011;5063;50.878;4.742;2023-02-01T09:06:55;18.57;;;4.40;;
10045;SDS011;5063;50.878;4.742;2023-02-01T09:09:22;17.37;;;4.10;;
10045;SDS011;5063;50.878;4.742;2023-02-01T09:11:48;14.03;;;3.70;;
10045;SDS011;5063;50.878;4.742;2023-02-01T09:14:15;21.67;;;4.40;;
10045;SDS011;5063;50.878;4.742;2023-02-01T09:16:42;17.50;;;4.50;;
10045;SDS011;5063;50.878;4.742;2023-02-01T09:19:08;16.67;;;4.37;;
10045;SDS011;5063;50.878;4.742;2023-02-01T09:21:34;9.03;;;3.30;;
10045;SDS011;5063;50.878;4.742;2023-02-01T09:24:00;15.23;;;4.77;;
10045;SDS011;5063;50.878;4.742;2023-02-01T09:26:26;17.83;;;4.90;;
10045;SDS011;5063;50.878;4.742;2023-02-01T09:28:52;13.67;;;4.50;;
10045;SDS011;5063;50.878;4.742;2023-02-01T09:31:18;13.47;;;3.70;;
10045;SDS011;5063;50.878;4.742;2023-02-01T09:33:44;15.17;;;3.80;;
10045;SDS011;5063;50.878;4.742;2023-02-01T09:36:10;12.00;;;3.67;;
10045;SDS011;5063;50.878;4.742;2023-02-01T09:38:36;15.37;;;3.67;;
10045;SDS011;5063;50.878;4.742;2023-02-01T09:41:06;14.50;;;4.20;;
10045;SDS011;5063;50.878;4.742;2023-02-01T09:46:31;19.10;;;3.83;;
10045;SDS011;5063;50.878;4.742;2023-02-01T09:49:04;14.50;;;4.60;;
10045;SDS011;5063;50.878;4.742;2023-02-01T09:51:41;16.27;;;4.77;;
10045;SDS011;5063;50.878;4.742;2023-02-01T09:56:47;10.77;;;4.37;;
10045;SDS011;5063;50.878;4.742;2023-02-01T10:02:23;19.47;;;4.27;;
10045;SDS011;5063;50.878;4.742;2023-02-01T10:04:53;14.07;;;4.40;;
10045;SDS011;5063;50.878;4.742;2023-02-01T10:12:47;16.23;;;4.60;;
10045;SDS011;5063;50.878;4.742;2023-02-01T10:26:32;15.10;;;4.10;;
10045;SDS011;5063;50.878;4.742;2023-02-01T10:29:03;11.10;;;3.30;;
10045;SDS011;5063;50.878;4.742;2023-02-01T10:31:36;11.80;;;3.80;;
10045;SDS011;5063;50.878;4.742;2023-02-01T10:37:00;13.87;;;3.77;;
10045;SDS011;5063;50.878;4.742;2023-02-01T10:39:35;14.13;;;3.43;;
10045;SDS011;5063;50.878;4.742;2023-02-01T10:42:02;15.07;;;4.53;;
10045;SDS011;5063;50.878;4.742;2023-02-01T10:44:28;8.70;;;3.63;;
10045;SDS011;5063;50.878;4.742;2023-02-01T10:46:56;18.93;;;4.63;;
10045;SDS011;5063;50.878;4.742;2023-02-01T10:49:38;15.23;;;3.40;;
10045;SDS011;5063;50.878;4.742;2023-02-01T10:54:41;10.13;;;3.80;;
10045;SDS011;5063;50.878;4.742;2023-02-01T10:57:08;13.13;;;3.30;;
10045;SDS011;5063;50.878;4.742;2023-02-01T10:59:35;17.37;;;3.73;;
10045;SDS011;5063;50.878;4.742;2023-02-01T11:02:11;17.70;;;4.17;;
10045;SDS011;5063;50.878;4.742;2023-02-01T11:04:44;7.60;;;2.87;;
10045;SDS011;5063;50.878;4.742;2023-02-01T11:09:48;9.93;;;2.83;;
10045;SDS011;5063;50.878;4.742;2023-02-01T11:12:49;11.77;;;3.53;;
10045;SDS011;5063;50.878;4.742;2023-02-01T11:15:18;15.23;;;3.80;;
10045;SDS011;5063;50.878;4.742;2023-02-01T11:17:47;17.13;;;3.13;;
10045;SDS011;5063;50.878;4.742;2023-02-01T11:20:17;14.73;;;3.27;;
10045;SDS011;5063;50.878;4.742;2023-02-01T11:22:46;12.73;;;3.50;;
10045;SDS011;5063;50.878;4.742;2023-02-01T11:25:14;13.03;;;3.00;;
10045;SDS011;5063;50.878;4.742;2023-02-01T11:27:42;10.80;;;3.37;;
10045;SDS011;5063;50.878;4.742;2023-02-01T11:30:19;15.57;;;2.87;;
10045;SDS011;5063;50.878;4.742;2023-02-01T11:33:04;9.70;;;3.47;;
10045;SDS011;5063;50.878;4.742;2023-02-01T11:35:32;10.63;;;2.83;;
10045;SDS011;5063;50.878;4.742;2023-02-01T11:38:09;10.77;;;3.47;;
10045;SDS011;5063;50.878;4.742;2023-02-01T11:40:41;12.20;;;3.60;;
10045;SDS011;5063;50.878;4.742;2023-02-01T11:43:08;14.53;;;3.43;;
10045;SDS011;5063;50.878;4.742;2023-02-01T11:45:54;11.13;;;3.03;;
10045;SDS011;5063;50.878;4.742;2023-02-01T11:48:26;12.43;;;3.13;;
10045;SDS011;5063;50.878;4.742;2023-02-01T11:56:36;11.53;;;2.90;;
10045;SDS011;5063;50.878;4.742;2023-02-01T12:10:11;12.50;;;3.07;;
10045;SDS011;5063;50.878;4.742;2023-02-01T12:15:52;8.73;;;2.77;;
10045;SDS011;5063;50.878;4.742;2023-02-01T12:23:40;8.80;;;2.60;;
10045;SDS011;5063;50.878;4.742;2023-02-01T12:29:27;8.57;;;2.60;;
10045;SDS011;5063;50.878;4.742;2023-02-01T12:40:28;8.27;;;2.33;;
10045;SDS011;5063;50.878;4.742;2023-02-01T12:43:25;6.67;;;2.03;;
10045;SDS011;5063;50.878;4.742;2023-02-01T12:49:03;12.13;;;3.23;;
10045;SDS011;5063;50.878;4.742;2023-02-01T12:51:36;5.90;;;2.20;;
10045;SDS011;5063;50.878;4.742;2023-02-01T12:56:49;8.93;;;2.53;;
10045;SDS011;5063;50.878;4.742;2023-02-01T12:59:48;8.77;;;2.53;;
10045;SDS011;5063;50.878;4.742;2023-02-01T13:02:39;9.33;;;2.63;;
10045;SDS011;5063;50.878;4.742;2023-02-01T13:15:49;10.33;;;2.27;;
10045;SDS011;5063;50.878;4.742;2023-02-01T13:18:24;8.23;;;2.23;;
10045;SDS011;5063;50.878;4.742;2023-02-01T13:21:08;10.40;;;2.00;;
10045;SDS011;5063;50.878;4.742;2023-02-01T13:23:40;11.27;;;2.40;;
10045;SDS011;5063;50.878;4.742;2023-02-01T13:26:10;12.03;;;2.57;;
10045;SDS011;5063;50.878;4.742;2023-02-01T13:44:50;7.53;;;2.20;;
10045;SDS011;5063;50.878;4.742;2023-02-01T13:47:46;4.80;;;1.93;;
10045;SDS011;5063;50.878;4.742;2023-02-01T13:50:13;7.37;;;2.43;;
10045;SDS011;5063;50.878;4.742;2023-02-01T13:55:46;10.97;;;2.90;;
10045;SDS011;5063;50.878;4.742;2023-02-01T13:58:31;12.67;;;2.47;;
10045;SDS011;5063;50.878;4.742;2023-02-01T14:03:54;8.07;;;2.13;;
10045;SDS011;5063;50.878;4.742;2023-02-01T14:11:45;10.10;;;2.30;;
10045;SDS011;5063;50.878;4.742;2023-02-01T14:16:42;7.97;;;1.97;;
10045;SDS011;5063;50.878;4.742;2023-02-01T14:19:18;14.87;;;2.67;;
10045;SDS011;5063;50.878;4.742;2023-02-01T14:21:52;9.60;;;2.50;;
10045;SDS011;5063;50.878;4.742;2023-02-01T14:24:25;8.73;;;2.60;;
10045;SDS011;5063;50.878;4.742;2023-02-01T14:26:52;7.73;;;2.13;;
10045;SDS011;5063;50.878;4.742;2023-02-01T14:31:59;6.00;;;2.23;;
10045;SDS011;5063;50.878;4.742;2023-02-01T14:42:15;11.50;;;3.13;;
10045;SDS011;5063;50.878;4.742;2023-02-01T14:44:52;12.30;;;2.90;;
10045;SDS011;5063;50.878;4.742;2023-02-01T14:49:56;8.63;;;2.10;;
10045;SDS011;5063;50.878;4.742;2023-02-01T14:52:35;7.67;;;2.83;;
10045;SDS011;5063;50.878;4.742;2023-02-01T14:55:18;8.80;;;1.97;;
10045;SDS011;5063;50.878;4.742;2023-02-01T14:57:55;9.30;;;2.20;;
10045;SDS011;5063;50.878;4.742;2023-02-01T15:00:24;11.43;;;3.10;;
10045;SDS011;5063;50.878;4.742;2023-02-01T15:02:52;7.60;;;2.70;;
10045;SDS011;5063;50.878;4.742;2023-02-01T15:05:38;9.23;;;2.53;;
10045;SDS011;5063;50.878;4.742;2023-02-01T15:08:15;14.40;;;3.23;;
10045;SDS011;5063;50.878;4.742;2023-02-01T15:10:44;9.67;;;2.20;;
10045;SDS011;5063;50.878;4.742;2023-02-01T15:13:18;13.00;;;2.87;;
10045;SDS011;5063;50.878;4.742;2023-02-01T15:16:02;9.63;;;2.90;;
10045;SDS011;5063;50.878;4.742;2023-02-01T15:18:30;8.37;;;2.40;;
10045;SDS011;5063;50.878;4.742;2023-02-01T15:20:57;9.13;;;2.20;;
10045;SDS011;5063;50.878;4.742;2023-02-01T15:23:24;10.07;;;2.33;;
10045;SDS011;5063;50.878;4.742;2023-02-01T15:25:50;7.20;;;2.80;;
10045;SDS011;5063;50.878;4.742;2023-02-01T15:28:17;10.70;;;2.80;;
10045;SDS011;5063;50.878;4.742;2023-02-01T15:31:02;10.70;;;3.00;;
10045;SDS011;5063;50.878;4.742;2023-02-01T15:33:30;11.07;;;2.60;;
10045;SDS011;5063;50.878;4.742;2023-02-01T15:36:08;4.97;;;2.33;;
10045;SDS011;5063;50.878;4.742;2023-02-01T15:38:39;11.57;;;3.07;;
10045;SDS011;5063;50.878;4.742;2023-02-01T15:41:14;5.63;;;2.33;;
10045;SDS011;5063;50.878;4.742;2023-02-01T15:43:49;13.17;;;2.93;;
10045;SDS011;5063;50.878;4.742;2023-02-01T15:46:40;12.83;;;2.93;;
10045;SDS011;5063;50.878;4.742;2023-02-01T15:49:18;11.10;;;2.97;;
10045;SDS011;5063;50.878;4.742;2023-02-01T15:51:45;10.90;;;3.00;;
10045;SDS011;5063;50.878;4.742;2023-02-01T15:54:13;9.20;;;2.53;;
10045;SDS011;5063;50.878;4.742;2023-02-01T15:57:03;10.53;;;3.00;;
10045;SDS011;5063;50.878;4.742;2023-02-01T15:59:51;9.80;;;2.93;;
10045;SDS011;5063;50.878;4.742;2023-02-01T16:02:25;8.87;;;2.67;;
10045;SDS011;5063;50.878;4.742;2023-02-01T16:05:30;5.73;;;2.40;;
10045;SDS011;5063;50.878;4.742;2023-02-01T16:08:13;7.57;;;3.03;;
10045;SDS011;5063;50.878;4.742;2023-02-01T16:10:42;10.13;;;2.90;;
10045;SDS011;5063;50.878;4.742;2023-02-01T16:13:10;10.80;;;3.30;;
10045;SDS011;5063;50.878;4.742;2023-02-01T16:15:37;12.20;;;2.73;;
10045;SDS011;5063;50.878;4.742;2023-02-01T16:18:03;11.53;;;2.90;;
10045;SDS011;5063;50.878;4.742;2023-02-01T16:20:29;12.93;;;3.73;;
10045;SDS011;5063;50.878;4.742;2023-02-01T16:22:55;12.03;;;3.37;;
10045;SDS011;5063;50.878;4.742;2023-02-01T16:25:21;11.43;;;3.40;;
10045;SDS011;5063;50.878;4.742;2023-02-01T16:27:47;12.73;;;3.50;;
10045;SDS011;5063;50.878;4.742;2023-02-01T16:30:13;8.90;;;3.20;;
10045;SDS011;5063;50.878;4.742;2023-02-01T16:32:39;13.27;;;3.50;;
10045;SDS011;5063;50.878;4.742;2023-02-01T16:35:05;9.07;;;2.60;;
10045;SDS011;5063;50.878;4.742;2023-02-01T16:37:53;6.67;;;2.60;;
10045;SDS011;5063;50.878;4.742;2023-02-01T16:40:19;6.57;;;2.90;;
10045;SDS011;5063;50.878;4.742;2023-02-01T16:42:49;9.60;;;3.20;;
10045;SDS011;5063;50.878;4.742;2023-02-01T16:45:16;13.63;;;3.03;;
10045;SDS011;5063;50.878;4.742;2023-02-01T16:47:45;18.60;;;4.50;;
10045;SDS011;5063;50.878;4.742;2023-02-01T16:50:20;7.43;;;2.97;;
10045;SDS011;5063;50.878;4.742;2023-02-01T16:52:48;12.67;;;3.33;;
10045;SDS011;5063;50.878;4.742;2023-02-01T16:55:15;15.90;;;3.20;;
10045;SDS011;5063;50.878;4.742;2023-02-01T16:57:43;12.37;;;3.50;;
10045;SDS011;5063;50.878;4.742;2023-02-01T17:00:09;14.13;;;3.20;;
10045;SDS011;5063;50.878;4.742;2023-02-01T17:02:36;7.50;;;2.73;;
10045;SDS011;5063;50.878;4.742;2023-02-01T17:05:02;11.80;;;2.70;;
10045;SDS011;5063;50.878;4.742;2023-02-01T17:07:29;9.20;;;2.63;;
10045;SDS011;5063;50.878;4.742;2023-02-01T17:09:55;13.10;;;4.17;;
10045;SDS011;5063;50.878;4.742;2023-02-01T17:12:25;15.90;;;3.67;;
10045;SDS011;5063;50.878;4.742;2023-02-01T17:14:52;12.83;;;3.43;;
10045;SDS011;5063;50.878;4.742;2023-02-01T17:17:18;6.30;;;2.90;;
10045;SDS011;5063;50.878;4.742;2023-02-01T17:19:46;11.83;;;3.00;;
10045;SDS011;5063;50.878;4.742;2023-02-01T17:22:17;11.67;;;3.17;;
10045;SDS011;5063;50.878;4.742;2023-02-01T17:24:43;13.13;;;3.40;;
10045;SDS011;5063;50.878;4.742;2023-02-01T17:27:09;12.33;;;3.00;;
10045;SDS011;5063;50.878;4.742;2023-02-01T17:29:35;13.07;;;3.67;;
10045;SDS011;5063;50.878;4.742;2023-02-01T17:32:00;6.63;;;2.97;;
10045;SDS011;5063;50.878;4.742;2023-02-01T17:34:28;7.47;;;2.73;;
10045;SDS011;5063;50.878;4.742;2023-02-01T17:36:53;9.93;;;3.20;;
10045;SDS011;5063;50.878;4.742;2023-02-01T17:39:19;12.93;;;3.60;;
10045;SDS011;5063;50.878;4.742;2023-02-01T17:42:04;13.60;;;3.30;;
10045;SDS011;5063;50.878;4.742;2023-02-01T17:44:31;11.57;;;3.67;;
10045;SDS011;5063;50.878;4.742;2023-02-01T17:46:57;14.67;;;3.67;;
10045;SDS011;5063;50.878;4.742;2023-02-01T17:49:24;18.60;;;4.53;;
10045;SDS011;5063;50.878;4.742;2023-02-01T17:51:52;14.17;;;3.27;;
10045;SDS011;5063;50.878;4.742;2023-02-01T17:54:19;12.67;;;3.37;;
10045;SDS011;5063;50.878;4.742;2023-02-01T17:56:45;11.90;;;3.60;;
10045;SDS011;5063;50.878;4.742;2023-02-01T17:59:14;10.50;;;3.33;;